Time;durP1;ratioP1;P1;durP2;ratioP2;P2;SDS_P1;SDS_P2;PMS_P1;PMS_P2;Temp;Humidity;BMP_temperature;BMP_pressure;BME280_temperature;BME280_humidity;BME280_pressure;Samples;Min_cycle;Max_cycle;Signal;HPM_P1;HPM_P2
2021/01/19 00:01:45;;;;;;;38.00;20.80;;;1.80;93.50;;;;;;4902991;28;91955;-75
2021/01/19 00:04:11;;;;;;;35.17;22.37;;;1.80;93.50;;;;;;4903394;28;92185;-75
2021/01/19 00:06:37;;;;;;;36.67;19.67;;;1.90;93.50;;;;;;4883943;28;97341;-75
2021/01/19 00:09:04;;;;;;;34.97;19.47;;;1.90;93.40;;;;;;4892911;28;95322;-75
2021/01/19 00:11:31;;;;;;;34.00;20.90;;;1.90;93.40;;;;;;4868692;28;91970;-75
2021/01/19 00:13:56;;;;;;;37.47;20.83;;;2.00;93.40;;;;;;4901002;28;92116;-75
2021/01/19 00:16:22;;;;;;;31.90;18.47;;;2.00;93.40;;;;;;4901258;28;92815;-75
2021/01/19 00:18:48;;;;;;;34.00;19.60;;;2.00;93.30;;;;;;4866981;28;95719;-75
2021/01/19 00:21:14;;;;;;;31.33;19.27;;;2.00;93.30;;;;;;4884015;28;92120;-75
2021/01/19 00:23:40;;;;;;;34.90;20.23;;;2.10;93.20;;;;;;4883711;28;91385;-75
2021/01/19 00:26:05;;;;;;;33.97;18.43;;;2.10;93.20;;;;;;4866406;28;96897;-75
2021/01/19 00:28:31;;;;;;;28.60;16.37;;;2.10;93.20;;;;;;4868264;28;96120;-75
2021/01/19 00:30:57;;;;;;;30.67;16.57;;;2.10;93.30;;;;;;4882634;28;93198;-75
2021/01/19 00:33:23;;;;;;;26.50;16.73;;;2.10;93.30;;;;;;4883891;28;92398;-75
2021/01/19 00:35:49;;;;;;;30.67;19.23;;;2.10;93.30;;;;;;4883158;28;93220;-75
2021/01/19 00:38:15;;;;;;;29.97;17.60;;;2.10;93.30;;;;;;4883698;28;92837;-75
2021/01/19 00:40:40;;;;;;;30.40;17.73;;;2.10;93.40;;;;;;4901233;28;92427;-75
2021/01/19 00:43:06;;;;;;;27.30;16.17;;;2.00;93.40;;;;;;4882744;28;92026;-75
2021/01/19 00:45:32;;;;;;;27.73;16.27;;;2.10;93.40;;;;;;4900782;28;92309;-75
2021/01/19 00:47:58;;;;;;;30.20;17.63;;;2.10;93.40;;;;;;4882988;28;94226;-75
2021/01/19 00:50:24;;;;;;;26.33;17.03;;;2.10;93.40;;;;;;4901077;28;92425;-75
2021/01/19 00:52:51;;;;;;;33.63;20.33;;;2.20;93.30;;;;;;4883270;28;92072;-75
2021/01/19 00:55:17;;;;;;;29.83;17.20;;;2.10;93.30;;;;;;4867036;28;97530;-75
2021/01/19 00:57:47;;;;;;;30.43;18.40;;;2.10;93.40;;;;;;4882355;28;96766;-75
2021/01/19 01:00:16;;;;;;;26.43;16.17;;;2.10;93.50;;;;;;4868125;28;91896;-74
2021/01/19 01:02:42;;;;;;;27.03;17.37;;;2.10;93.40;;;;;;4901154;28;92102;-75
2021/01/19 01:05:09;;;;;;;28.43;17.83;;;2.10;93.40;;;;;;4882966;28;92392;-75
2021/01/19 01:07:42;;;;;;;28.77;17.60;;;2.20;93.50;;;;;;4900527;28;92954;-75
2021/01/19 01:10:10;;;;;;;30.80;19.03;;;2.10;93.50;;;;;;4882917;28;92094;-75
2021/01/19 01:12:36;;;;;;;34.10;18.33;;;2.10;93.50;;;;;;4883991;28;91400;-75
2021/01/19 01:15:05;;;;;;;34.50;18.97;;;2.10;93.50;;;;;;4882233;28;94566;-75
2021/01/19 01:17:38;;;;;;;30.50;18.30;;;2.10;93.60;;;;;;4868321;28;95463;-74
2021/01/19 01:20:09;;;;;;;31.23;19.13;;;2.10;93.60;;;;;;4918724;28;93353;-75
2021/01/19 01:22:44;;;;;;;29.80;18.37;;;2.20;93.60;;;;;;4920071;28;91966;-75
2021/01/19 01:25:11;;;;;;;32.37;18.10;;;2.20;93.60;;;;;;4901380;28;93459;-75
2021/01/19 01:27:38;;;;;;;30.83;18.13;;;2.20;93.60;;;;;;4902193;28;92897;-75
2021/01/19 01:30:09;;;;;;;28.00;17.13;;;2.20;93.50;;;;;;4918966;28;92304;-75
2021/01/19 01:32:50;;;;;;;32.23;18.00;;;2.20;93.60;;;;;;4886221;28;92177;-75
2021/01/19 01:35:17;;;;;;;29.87;17.40;;;2.20;93.50;;;;;;4885441;28;96743;-75
2021/01/19 01:37:51;;;;;;;26.93;17.00;;;2.20;93.60;;;;;;4886138;28;95944;-75
2021/01/19 01:40:19;;;;;;;28.97;17.77;;;2.20;93.50;;;;;;4901897;28;92006;-75
2021/01/19 01:42:45;;;;;;;25.10;15.87;;;2.30;93.40;;;;;;4901910;28;92091;-75
2021/01/19 01:45:12;;;;;;;29.93;18.17;;;2.30;93.40;;;;;;4884577;28;97036;-75
2021/01/19 01:47:39;;;;;;;30.83;17.90;;;2.30;93.50;;;;;;4918543;28;93804;-75
2021/01/19 01:50:08;;;;;;;27.90;17.30;;;2.30;93.50;;;;;;4917994;28;92598;-75
2021/01/19 01:52:33;;;;;;;28.93;17.30;;;2.30;93.40;;;;;;4900878;28;92156;-74
2021/01/19 01:55:00;;;;;;;26.93;16.50;;;2.30;93.30;;;;;;4900344;28;96396;-75
2021/01/19 01:57:26;;;;;;;26.37;17.40;;;2.30;93.30;;;;;;4885381;28;96377;-75
2021/01/19 01:59:58;;;;;;;27.60;18.10;;;2.30;93.30;;;;;;4919485;28;91889;-75
2021/01/19 02:02:24;;;;;;;30.60;18.58;;;2.30;93.20;;;;;;4902310;28;91189;-75
2021/01/19 02:04:49;;;;;;;29.80;18.47;;;2.40;93.20;;;;;;4918185;28;93135;-74
2021/01/19 02:07:25;;;;;;;24.80;16.37;;;2.40;93.10;;;;;;4918199;28;92871;-75
2021/01/19 02:10:02;;;;;;;27.77;18.07;;;2.40;93.10;;;;;;4901503;28;93358;-75
2021/01/19 02:12:48;;;;;;;28.63;18.03;;;2.40;93.10;;;;;;4901046;28;92747;-75
2021/01/19 02:15:15;;;;;;;28.10;16.63;;;2.40;93.10;;;;;;4918111;28;93777;-75
2021/01/19 02:18:03;;;;;;;22.20;15.73;;;2.40;93.10;;;;;;4868848;28;96032;-75
2021/01/19 02:21:03;;;;;;;24.73;15.37;;;2.40;93.20;;;;;;4885704;28;92456;-75
2021/01/19 02:23:42;;;;;;;26.17;17.20;;;2.40;93.20;;;;;;4901778;28;92261;-75
2021/01/19 02:26:22;;;;;;;24.40;14.83;;;2.40;93.30;;;;;;4900912;28;92880;-75
2021/01/19 02:29:05;;;;;;;24.80;15.40;;;2.40;93.40;;;;;;4885623;28;96378;-75
2021/01/19 02:32:01;;;;;;;27.07;16.20;;;2.40;93.20;;;;;;4901464;28;92488;-75
2021/01/19 02:34:45;;;;;;;23.43;14.27;;;2.40;93.20;;;;;;4901717;28;92004;-74
2021/01/19 02:37:14;;;;;;;25.60;15.80;;;2.50;93.10;;;;;;4899513;28;94367;-75
2021/01/19 02:40:18;;;;;;;21.97;13.57;;;2.50;93.10;;;;;;4880733;28;97360;-75
2021/01/19 02:43:10;;;;;;;21.97;14.27;;;2.50;92.90;;;;;;4815492;29;91992;-75
2021/01/19 02:45:44;;;;;;;24.92;14.90;;;2.50;92.80;;;;;;4898066;28;92460;-75
2021/01/19 02:48:10;;;;;;;27.67;17.33;;;2.60;92.70;;;;;;4899937;28;96593;-75
2021/01/19 02:50:36;;;;;;;90.90;49.00;;;2.60;92.60;;;;;;4901760;28;92990;-75
2021/01/19 02:53:02;;;;;;;58.60;35.23;;;2.60;92.60;;;;;;4902302;28;91863;-75
2021/01/19 02:55:28;;;;;;;33.17;21.30;;;2.70;92.50;;;;;;4870496;28;91233;-75
2021/01/19 02:58:16;;;;;;;37.40;23.87;;;2.70;92.40;;;;;;4901441;28;96306;-75
2021/01/19 03:01:03;;;;;;;41.10;26.03;;;2.80;92.30;;;;;;4884983;28;96476;-75
2021/01/19 03:03:39;;;;;;;36.43;24.63;;;2.80;92.30;;;;;;4869129;28;92951;-75
2021/01/19 03:06:09;;;;;;;27.50;18.30;;;2.80;92.20;;;;;;4901936;28;91940;-75
2021/01/19 03:08:37;;;;;;;23.83;17.17;;;2.80;92.20;;;;;;4884849;28;96214;-75
2021/01/19 03:11:04;;;;;;;28.60;16.83;;;2.80;92.30;;;;;;4901439;28;93126;-75
2021/01/19 03:13:31;;;;;;;35.30;19.03;;;2.80;92.20;;;;;;4902551;28;91935;-75
2021/01/19 03:16:07;;;;;;;50.07;23.77;;;2.80;92.20;;;;;;4902555;28;92104;-75
2021/01/19 03:18:35;;;;;;;31.50;17.43;;;2.90;92.20;;;;;;4902846;28;93141;-75
2021/01/19 03:21:06;;;;;;;31.83;18.03;;;2.90;92.30;;;;;;4887957;28;96332;-75
2021/01/19 03:23:32;;;;;;;34.27;18.00;;;2.90;92.30;;;;;;4888092;28;92187;-75
2021/01/19 03:25:59;;;;;;;29.07;16.43;;;2.90;92.30;;;;;;4904186;28;92100;-75
2021/01/19 03:28:25;;;;;;;32.17;17.40;;;2.90;92.30;;;;;;4886185;28;97882;-75
2021/01/19 03:30:51;;;;;;;43.93;23.13;;;2.90;92.30;;;;;;4903996;28;93583;-75
2021/01/19 03:33:17;;;;;;;23.63;14.30;;;2.90;92.30;;;;;;4883061;28;92424;-75
2021/01/19 03:35:43;;;;;;;19.37;11.27;;;2.90;92.30;;;;;;4887209;28;92563;-75
2021/01/19 03:38:09;;;;;;;18.60;11.63;;;2.90;92.30;;;;;;4902499;28;94661;-75
2021/01/19 03:40:37;;;;;;;18.67;10.70;;;2.90;92.30;;;;;;4887646;28;96436;-75
2021/01/19 03:43:03;;;;;;;13.57;8.50;;;2.90;92.30;;;;;;4887410;28;92042;-75
2021/01/19 03:45:29;;;;;;;12.57;8.60;;;3.00;92.40;;;;;;4888630;28;91239;-75
2021/01/19 03:47:56;;;;;;;11.73;7.63;;;3.00;92.40;;;;;;4904371;28;93630;-75
2021/01/19 03:50:23;;;;;;;11.27;6.57;;;3.00;92.40;;;;;;4903121;28;96672;-75
2021/01/19 03:52:49;;;;;;;9.93;6.47;;;3.00;92.40;;;;;;4903679;28;92945;-75
2021/01/19 03:55:16;;;;;;;12.87;7.43;;;3.00;92.70;;;;;;4903813;28;92085;-75
2021/01/19 03:57:41;;;;;;;8.80;5.50;;;3.10;92.50;;;;;;4920998;28;93425;-75
2021/01/19 04:00:11;;;;;;;11.23;6.07;;;3.00;92.50;;;;;;4902532;28;92765;-75
2021/01/19 04:02:40;;;;;;;13.97;6.33;;;3.10;92.60;;;;;;4905088;28;92701;-75
2021/01/19 04:05:07;;;;;;;10.87;5.93;;;3.10;92.60;;;;;;4920864;28;92014;-75
2021/01/19 04:07:39;;;;;;;12.50;6.23;;;3.00;92.70;;;;;;4887702;28;95995;-75
2021/01/19 04:10:09;;;;;;;14.50;6.60;;;3.10;92.70;;;;;;4902797;28;96128;-75
2021/01/19 04:12:36;;;;;;;10.27;6.00;;;3.10;92.50;;;;;;4888780;28;92240;-75
2021/01/19 04:15:03;;;;;;;7.73;4.53;;;3.10;92.50;;;;;;4903993;28;92109;-75
2021/01/19 04:17:29;;;;;;;8.50;5.40;;;3.10;92.40;;;;;;4901780;28;94255;-75
2021/01/19 04:19:55;;;;;;;10.40;5.70;;;3.10;92.50;;;;;;4887544;28;97062;-75
2021/01/19 04:22:21;;;;;;;8.37;4.80;;;3.10;92.50;;;;;;4903444;28;92400;-75
2021/01/19 04:24:47;;;;;;;8.50;5.33;;;3.20;92.50;;;;;;4903730;28;92748;-74
2021/01/19 04:27:13;;;;;;;8.63;5.60;;;3.20;92.50;;;;;;4902676;28;96740;-75
2021/01/19 04:29:39;;;;;;;8.23;4.77;;;3.20;92.40;;;;;;4921341;28;91927;-75
2021/01/19 04:32:05;;;;;;;10.87;5.53;;;3.20;92.40;;;;;;4903544;28;91966;-75
2021/01/19 04:34:31;;;;;;;7.20;5.00;;;3.20;92.50;;;;;;4887873;28;91510;-75
2021/01/19 04:36:56;;;;;;;10.27;5.67;;;3.20;92.60;;;;;;4887533;28;96627;-75
2021/01/19 04:39:22;;;;;;;8.90;4.90;;;3.20;92.60;;;;;;4886689;28;95865;-76
2021/01/19 04:41:48;;;;;;;10.33;5.23;;;3.20;92.60;;;;;;4887081;28;93015;-75
2021/01/19 04:44:15;;;;;;;7.63;5.27;;;3.20;92.50;;;;;;4886822;28;91964;-75
2021/01/19 04:46:44;;;;;;;10.23;6.00;;;3.20;92.60;;;;;;4887152;28;96831;-75
2021/01/19 04:49:11;;;;;;;9.33;5.30;;;3.20;92.50;;;;;;4886376;28;96476;-75
2021/01/19 04:51:39;;;;;;;8.63;5.37;;;3.30;92.50;;;;;;4887673;28;92452;-75
2021/01/19 04:54:08;;;;;;;7.13;5.37;;;3.30;92.50;;;;;;4887501;28;92628;-75
2021/01/19 04:56:39;;;;;;;6.90;5.07;;;3.30;92.50;;;;;;4887184;28;93569;-75
2021/01/19 04:59:12;;;;;;;8.33;5.80;;;3.20;92.40;;;;;;4887361;28;96269;-75
2021/01/19 05:01:51;;;;;;;8.13;5.57;;;3.30;92.50;;;;;;4903566;28;92006;-76
2021/01/19 05:04:26;;;;;;;9.50;6.10;;;3.30;92.60;;;;;;4902404;28;92093;-76
2021/01/19 05:06:55;;;;;;;11.73;7.63;;;3.30;92.50;;;;;;4901886;28;97494;-75
2021/01/19 05:09:28;;;;;;;11.03;7.00;;;3.30;92.50;;;;;;4901868;28;93657;-75
2021/01/19 05:12:02;;;;;;;8.57;7.00;;;3.20;92.50;;;;;;4887555;28;91871;-76
2021/01/19 05:14:38;;;;;;;10.77;7.10;;;3.30;92.40;;;;;;4920130;28;92340;-76
2021/01/19 05:17:06;;;;;;;11.33;7.97;;;3.40;92.30;;;;;;4902909;28;96136;-75
2021/01/19 05:19:32;;;;;;;10.60;8.17;;;3.40;92.20;;;;;;4902383;28;93241;-75
2021/01/19 05:21:58;;;;;;;12.50;7.07;;;3.40;92.20;;;;;;4904281;28;92222;-76
2021/01/19 05:24:24;;;;;;;8.50;6.40;;;3.40;92.20;;;;;;4903710;28;91412;-75
2021/01/19 05:26:51;;;;;;;10.43;7.13;;;3.40;92.20;;;;;;4920663;28;92704;-75
2021/01/19 05:29:17;;;;;;;13.63;7.67;;;3.40;92.20;;;;;;4885835;28;96261;-75
2021/01/19 05:31:42;;;;;;;14.00;7.23;;;3.40;92.10;;;;;;4920069;28;93224;-75
2021/01/19 05:34:11;;;;;;;11.30;6.70;;;3.40;92.00;;;;;;4886818;28;92685;-75
2021/01/19 05:36:44;;;;;;;12.67;6.60;;;3.50;92.00;;;;;;4902333;28;96201;-76
2021/01/19 05:39:21;;;;;;;28.03;10.20;;;3.50;92.00;;;;;;4886184;28;96241;-76
2021/01/19 05:41:52;;;;;;;18.47;9.07;;;3.50;91.90;;;;;;4886289;28;92370;-75
2021/01/19 05:44:29;;;;;;;18.20;8.63;;;3.50;91.80;;;;;;4919441;28;92141;-75
2021/01/19 05:46:58;;;;;;;34.80;12.87;;;3.50;91.70;;;;;;4920136;28;93725;-75
2021/01/19 05:49:27;;;;;;;30.40;11.17;;;3.50;91.70;;;;;;4901370;28;93129;-75
2021/01/19 05:52:13;;;;;;;23.10;11.13;;;3.50;91.70;;;;;;4919445;28;91851;-75
2021/01/19 05:54:47;;;;;;;23.73;12.23;;;3.50;91.70;;;;;;4902279;28;91948;-75
2021/01/19 05:57:15;;;;;;;36.53;16.30;;;3.50;91.70;;;;;;4917705;28;94655;-76
2021/01/19 05:59:45;;;;;;;39.37;18.63;;;3.50;91.70;;;;;;4918880;28;93923;-76
2021/01/19 06:02:13;;;;;;;38.90;17.63;;;3.60;91.70;;;;;;4902237;28;92054;-75
2021/01/19 06:04:48;;;;;;;47.77;20.20;;;3.60;91.60;;;;;;4901626;28;92096;-75
2021/01/19 06:07:22;;;;;;;33.90;15.97;;;3.60;91.50;;;;;;4900980;28;96598;-76
2021/01/19 06:09:49;;;;;;;29.73;14.83;;;3.60;91.50;;;;;;4885520;28;95889;-75
2021/01/19 06:12:16;;;;;;;36.90;17.17;;;3.60;91.60;;;;;;4918614;28;91880;-75
2021/01/19 06:14:51;;;;;;;32.93;16.23;;;3.60;91.60;;;;;;4919419;28;91392;-75
2021/01/19 06:17:22;;;;;;;24.80;13.90;;;3.60;91.60;;;;;;4884849;28;96376;-75
2021/01/19 06:19:58;;;;;;;30.00;14.47;;;3.70;91.60;;;;;;4901665;28;93471;-76
2021/01/19 06:22:26;;;;;;;34.63;16.80;;;3.60;91.50;;;;;;4901875;28;93229;-75
2021/01/19 06:24:59;;;;;;;32.17;16.87;;;3.60;91.50;;;;;;4904972;28;92440;-75
2021/01/19 06:27:28;;;;;;;25.37;12.40;;;3.70;91.40;;;;;;4903225;28;93735;-75
2021/01/19 06:30:00;;;;;;;27.07;15.07;;;3.70;91.40;;;;;;4904573;28;94530;-75
2021/01/19 06:32:36;;;;;;;;;;;3.70;91.40;;;;;;4922128;28;92110;-76
2021/01/19 06:35:23;;;;;;;25.50;14.03;;;3.70;91.30;;;;;;4890946;28;92205;-75
2021/01/19 06:37:51;;;;;;;26.03;13.13;;;3.70;91.30;;;;;;4888559;28;95794;-75
2021/01/19 06:40:23;;;;;;;29.13;14.70;;;3.70;91.30;;;;;;4888183;28;96318;-76
2021/01/19 06:43:03;;;;;;;26.10;13.90;;;3.70;91.20;;;;;;4915877;28;91998;-75
2021/01/19 06:45:30;;;;;;;24.83;13.43;;;3.70;91.20;;;;;;4920987;28;92497;-76
2021/01/19 06:47:58;;;;;;;26.77;13.07;;;3.70;91.30;;;;;;4900657;28;94371;-75
2021/01/19 06:50:29;;;;;;;20.13;11.90;;;3.70;91.20;;;;;;4899680;28;97058;-75
2021/01/19 06:53:11;;;;;;;21.53;11.47;;;3.70;91.10;;;;;;4888027;28;92043;-76
2021/01/19 06:55:58;;;;;;;24.90;12.73;;;3.80;91.10;;;;;;4901241;28;92587;-76
2021/01/19 06:58:48;;;;;;;20.33;13.00;;;3.80;90.90;;;;;;4890304;28;93749;-75
2021/01/19 07:01:18;;;;;;;19.80;12.70;;;3.80;90.80;;;;;;4904342;28;96874;-76
2021/01/19 07:03:46;;;;;;;29.07;15.30;;;3.80;90.70;;;;;;4905644;28;91844;-76
2021/01/19 07:06:14;;;;;;;28.20;16.50;;;3.90;90.70;;;;;;4899558;28;91451;-76
2021/01/19 07:08:59;;;;;;;29.60;15.87;;;3.90;90.60;;;;;;4898285;28;93214;-76
2021/01/19 07:11:37;;;;;;;32.80;17.40;;;3.90;90.80;;;;;;4883883;28;96363;-75
2021/01/19 07:14:27;;;;;;;27.57;16.13;;;3.90;90.50;;;;;;4887082;28;92827;-76
2021/01/19 07:17:04;;;;;;;27.57;15.23;;;3.90;90.50;;;;;;4898920;28;92206;-76
2021/01/19 07:19:33;;;;;;;22.90;13.77;;;3.90;90.40;;;;;;4868557;28;96084;-76
2021/01/19 07:22:06;;;;;;;22.57;11.40;;;4.00;90.30;;;;;;4903015;28;92536;-76
2021/01/19 07:24:45;;;;;;;24.53;10.33;;;4.00;90.20;;;;;;4901801;28;92284;-75
2021/01/19 07:27:15;;;;;;;19.73;9.80;;;3.90;90.20;;;;;;4902009;28;91813;-75
2021/01/19 07:29:41;;;;;;;17.27;10.70;;;4.00;90.10;;;;;;4884596;28;97577;-76
2021/01/19 07:32:14;;;;;;;18.43;10.50;;;4.00;90.10;;;;;;4902657;28;92803;-76
2021/01/19 07:34:41;;;;;;;19.93;10.67;;;4.00;90.10;;;;;;4900070;28;92031;-75
2021/01/19 07:37:08;;;;;;;16.67;10.67;;;4.00;90.00;;;;;;4883847;28;93137;-75
2021/01/19 07:39:35;;;;;;;16.27;10.17;;;4.00;90.00;;;;;;4881967;28;94016;-75
2021/01/19 07:42:13;;;;;;;17.63;9.70;;;4.00;89.90;;;;;;4867918;28;96991;-75
2021/01/19 07:44:42;;;;;;;19.37;10.40;;;4.00;89.90;;;;;;4868754;28;92044;-76
2021/01/19 07:47:15;;;;;;;18.67;10.73;;;4.10;89.60;;;;;;4868615;28;92158;-76
2021/01/19 07:49:42;;;;;;;15.50;9.70;;;4.10;89.20;;;;;;4883930;28;96603;-75
2021/01/19 07:52:15;;;;;;;12.77;7.27;;;4.10;89.00;;;;;;4885149;28;96047;-75
2021/01/19 07:54:42;;;;;;;15.23;8.23;;;4.10;88.70;;;;;;4884004;28;92675;-76
2021/01/19 07:57:09;;;;;;;16.93;9.80;;;4.10;88.50;;;;;;4902553;28;91274;-75
2021/01/19 07:59:35;;;;;;;16.13;9.70;;;4.10;88.40;;;;;;4866338;28;96976;-75
2021/01/19 08:02:01;;;;;;;22.70;14.27;;;4.10;88.40;;;;;;4899852;28;92564;-76
2021/01/19 08:04:37;;;;;;;25.83;11.97;;;4.10;88.20;;;;;;4881943;28;93455;-75
2021/01/19 08:07:11;;;;;;;20.00;10.80;;;4.20;87.80;;;;;;4883792;28;92671;-76
2021/01/19 08:09:38;;;;;;;21.03;11.07;;;4.10;87.40;;;;;;4866977;28;96278;-76
2021/01/19 08:12:14;;;;;;;18.43;11.77;;;4.20;87.40;;;;;;4867028;28;95471;-75
2021/01/19 08:14:41;;;;;;;19.87;12.23;;;4.20;86.90;;;;;;4890071;28;92559;-75
2021/01/19 08:17:08;;;;;;;18.73;11.37;;;4.20;86.50;;;;;;4877112;28;92179;-76
2021/01/19 08:19:39;;;;;;;20.93;11.60;;;4.30;86.40;;;;;;4890728;28;93172;-76
2021/01/19 08:22:06;;;;;;;22.40;12.82;;;4.30;86.20;;;;;;4865096;28;96202;-76
2021/01/19 08:24:32;;;;;;;26.43;15.03;;;4.30;86.30;;;;;;4883536;28;92200;-76
2021/01/19 08:26:58;;;;;;;20.87;13.10;;;4.30;85.70;;;;;;4892832;28;92193;-76
2021/01/19 08:29:25;;;;;;;20.20;12.33;;;4.30;85.90;;;;;;4877459;28;97381;-75
2021/01/19 08:31:53;;;;;;;18.77;11.70;;;4.30;85.40;;;;;;4875923;28;97460;-75
2021/01/19 08:34:19;;;;;;;22.23;13.00;;;4.30;85.20;;;;;;4868941;28;95196;-75
2021/01/19 08:36:47;;;;;;;20.83;13.83;;;4.30;85.20;;;;;;4893066;28;92444;-75
2021/01/19 08:39:17;;;;;;;21.67;13.43;;;4.40;84.70;;;;;;4882923;28;93756;-75
2021/01/19 08:41:52;;;;;;;24.47;14.33;;;4.50;84.50;;;;;;4900344;28;92868;-75
2021/01/19 08:44:18;;;;;;;23.50;14.90;;;4.50;83.90;;;;;;4896055;28;92659;-75
2021/01/19 08:46:45;;;;;;;25.03;15.53;;;4.60;83.50;;;;;;4864166;28;91961;-75
2021/01/19 08:49:14;;;;;;;25.53;14.63;;;4.70;83.30;;;;;;4883949;28;96910;-75
2021/01/19 08:51:46;;;;;;;21.73;13.10;;;4.80;82.90;;;;;;4860247;28;95635;-76
2021/01/19 08:54:12;;;;;;;22.90;13.33;;;4.80;82.70;;;;;;4883460;28;93073;-76
2021/01/19 08:56:43;;;;;;;22.57;12.23;;;4.90;82.60;;;;;;4875595;28;92303;-76
2021/01/19 08:59:12;;;;;;;24.05;13.63;;;4.90;82.10;;;;;;4912177;28;93301;-77
2021/01/19 09:01:53;;;;;;;20.30;13.03;;;5.00;81.90;;;;;;4902959;28;93275;-76
2021/01/19 09:04:26;;;;;;;21.73;13.10;;;5.00;81.90;;;;;;4869844;28;92778;-75
2021/01/19 09:07:03;;;;;;;19.90;12.73;;;5.10;81.00;;;;;;4900044;28;92789;-76
2021/01/19 09:09:29;;;;;;;23.00;13.40;;;5.10;81.10;;;;;;4886407;28;96307;-75
2021/01/19 09:11:55;;;;;;;22.20;13.77;;;5.10;80.30;;;;;;4900742;28;92391;-73
2021/01/19 09:14:24;;;;;;;17.80;12.23;;;5.20;80.90;;;;;;4900858;28;92356;-73
2021/01/19 09:16:52;;;;;;;18.87;10.93;;;5.20;80.30;;;;;;4881469;28;92303;-73
2021/01/19 09:19:18;;;;;;;21.57;10.57;;;5.20;79.20;;;;;;4878750;28;94876;-73
2021/01/19 09:21:44;;;;;;;17.93;10.17;;;5.30;78.50;;;;;;4862707;28;96658;-76
2021/01/19 09:24:17;;;;;;;23.47;12.23;;;5.20;78.40;;;;;;4897741;28;92110;-75
2021/01/19 09:26:56;;;;;;;20.77;11.87;;;5.30;78.40;;;;;;4896607;28;92223;-76
2021/01/19 09:29:24;;;;;;;20.47;12.50;;;5.20;78.70;;;;;;4897068;28;93368;-76
2021/01/19 09:31:50;;;;;;;20.47;11.73;;;5.30;78.80;;;;;;4862076;28;96545;-76
2021/01/19 09:34:22;;;;;;;22.73;12.27;;;5.30;79.00;;;;;;4897047;28;92191;-75
2021/01/19 09:36:49;;;;;;;41.30;22.58;;;5.40;78.00;;;;;;4876097;28;91888;-75
2021/01/19 09:39:24;;;;;;;34.13;18.23;;;5.50;78.30;;;;;;4874456;28;93281;-76
2021/01/19 09:41:51;;;;;;;25.03;14.33;;;5.50;78.00;;;;;;4872182;28;95789;-75
2021/01/19 09:44:18;;;;;;;28.13;14.77;;;5.50;77.50;;;;;;4857849;28;93557;-75
2021/01/19 09:46:45;;;;;;;26.97;14.80;;;5.50;77.40;;;;;;4898286;28;92430;-75
2021/01/19 09:49:16;;;;;;;21.90;12.90;;;5.60;76.70;;;;;;4876850;28;96999;-75
2021/01/19 09:51:42;;;;;;;23.03;12.60;;;5.60;77.00;;;;;;4864167;28;96081;-75
2021/01/19 09:54:08;;;;;;;44.90;20.53;;;5.60;76.20;;;;;;4881482;28;92158;-75
2021/01/19 09:56:34;;;;;;;51.93;23.57;;;5.60;76.10;;;;;;4879935;28;92204;-75
2021/01/19 09:59:04;;;;;;;68.93;29.70;;;5.60;75.60;;;;;;4864469;28;96755;-75
2021/01/19 10:01:30;;;;;;;40.50;20.57;;;5.70;75.80;;;;;;4877037;28;93298;-76
2021/01/19 10:03:57;;;;;;;36.00;18.03;;;5.70;75.10;;;;;;4892808;28;92577;-76
2021/01/19 10:06:25;;;;;;;26.13;15.10;;;5.60;75.50;;;;;;4863504;28;92406;-76
2021/01/19 10:08:52;;;;;;;32.27;17.90;;;5.70;74.70;;;;;;4896505;28;95012;-75
2021/01/19 10:11:31;;;;;;;33.23;17.13;;;5.70;74.00;;;;;;4894079;28;94210;-75
2021/01/19 10:14:08;;;;;;;66.57;30.67;;;5.70;74.30;;;;;;4870668;28;92294;-75
2021/01/19 10:16:34;;;;;;;31.60;16.63;;;5.70;74.20;;;;;;4853215;28;92805;-76
2021/01/19 10:19:00;;;;;;;36.70;19.87;;;5.70;73.70;;;;;;4848801;28;96247;-76
2021/01/19 10:21:31;;;;;;;39.63;19.83;;;5.80;74.10;;;;;;4870526;28;96034;-76
2021/01/19 10:23:57;;;;;;;49.17;25.87;;;5.80;74.00;;;;;;4895841;28;92632;-76
2021/01/19 10:26:28;;;;;;;49.93;26.53;;;5.70;74.60;;;;;;4868545;28;91519;-75
2021/01/19 10:28:58;;;;;;;39.65;20.45;;;5.70;75.00;;;;;;4858917;28;97350;-75
2021/01/19 10:31:27;;;;;;;42.87;23.43;;;5.70;74.90;;;;;;4859524;28;96763;-75
2021/01/19 10:34:00;;;;;;;29.77;16.73;;;5.70;74.90;;;;;;4877860;28;93652;-75
2021/01/19 10:36:28;;;;;;;26.43;16.60;;;5.70;75.00;;;;;;4844620;28;92268;-75
2021/01/19 10:39:07;;;;;;;30.57;19.10;;;5.70;74.90;;;;;;4862426;28;97064;-76
2021/01/19 10:41:34;;;;;;;23.47;15.37;;;5.80;75.30;;;;;;4876937;28;94767;-75
2021/01/19 10:44:00;;;;;;;28.70;15.67;;;5.90;74.70;;;;;;4876695;28;92646;-76
2021/01/19 10:46:29;;;;;;;20.50;11.23;;;5.90;74.40;;;;;;4879035;28;92781;-76
2021/01/19 10:49:07;;;;;;;17.97;10.77;;;5.90;73.50;;;;;;4874462;28;93765;-75
2021/01/19 10:51:34;;;;;;;21.77;13.57;;;5.90;73.00;;;;;;4874358;28;95958;-75
2021/01/19 10:54:07;;;;;;;21.60;13.20;;;5.90;74.00;;;;;;4845314;28;92806;-76
2021/01/19 10:56:34;;;;;;;18.63;11.93;;;6.00;73.50;;;;;;4876533;28;93342;-75
2021/01/19 10:59:00;;;;;;;23.80;14.63;;;6.00;73.10;;;;;;4873626;28;93813;-76
2021/01/19 11:01:26;;;;;;;20.60;13.13;;;6.10;73.30;;;;;;4863347;28;97564;-76
2021/01/19 11:03:53;;;;;;;17.70;11.50;;;6.10;72.30;;;;;;4882363;28;92112;-74
2021/01/19 11:06:19;;;;;;;19.73;11.93;;;6.10;72.20;;;;;;4881181;28;92044;-75
2021/01/19 11:08:45;;;;;;;18.60;12.40;;;6.10;72.20;;;;;;4889688;28;95407;-73
2021/01/19 11:11:11;;;;;;;22.07;12.80;;;6.20;72.10;;;;;;4877180;28;95344;-75
2021/01/19 11:13:38;;;;;;;18.33;12.17;;;6.30;71.50;;;;;;4873559;28;92812;-74
2021/01/19 11:16:04;;;;;;;18.93;11.30;;;6.30;71.80;;;;;;4901394;28;91729;-75
2021/01/19 11:18:31;;;;;;;17.37;10.43;;;6.30;71.50;;;;;;4882102;28;95251;-76
2021/01/19 11:20:57;;;;;;;18.77;10.63;;;6.20;71.30;;;;;;4889576;28;93668;-73
2021/01/19 11:23:23;;;;;;;20.17;11.90;;;6.10;72.10;;;;;;4888454;28;93678;-73
2021/01/19 11:25:49;;;;;;;25.77;12.20;;;6.10;72.40;;;;;;4866461;28;92936;-73
2021/01/19 11:28:14;;;;;;;33.97;16.73;;;6.10;72.30;;;;;;4882496;28;96160;-73
2021/01/19 11:30:40;;;;;;;33.70;17.77;;;6.10;72.80;;;;;;4881514;28;94141;-73
2021/01/19 11:33:06;;;;;;;28.67;15.30;;;6.10;73.10;;;;;;4882859;28;92750;-73
2021/01/19 11:35:35;;;;;;;26.33;13.93;;;6.10;72.80;;;;;;4899889;28;92459;-73
2021/01/19 11:38:05;;;;;;;17.00;10.17;;;6.10;72.50;;;;;;4870266;28;95872;-73
2021/01/19 11:40:31;;;;;;;25.00;13.27;;;6.10;72.40;;;;;;4874703;28;92173;-75
2021/01/19 11:42:57;;;;;;;18.33;11.70;;;6.10;73.30;;;;;;4866533;28;92225;-73
2021/01/19 11:45:24;;;;;;;31.67;17.47;;;6.10;72.10;;;;;;4893041;28;92519;-73
2021/01/19 11:47:50;;;;;;;23.90;12.70;;;6.10;72.80;;;;;;4854591;28;96706;-73
2021/01/19 11:50:16;;;;;;;25.40;15.00;;;6.10;72.90;;;;;;4894566;28;93881;-73
2021/01/19 11:52:42;;;;;;;21.07;11.93;;;6.10;72.60;;;;;;4865992;28;92608;-73
2021/01/19 11:55:08;;;;;;;17.23;11.20;;;6.10;72.60;;;;;;4900055;28;92393;-73
2021/01/19 11:57:37;;;;;;;20.67;13.43;;;6.20;72.50;;;;;;4899000;28;93636;-74
2021/01/19 12:00:10;;;;;;;20.33;11.77;;;6.20;72.60;;;;;;4899336;28;92970;-73
2021/01/19 12:02:37;;;;;;;24.87;14.47;;;6.20;72.50;;;;;;4863709;28;92059;-73
2021/01/19 12:05:03;;;;;;;20.53;13.37;;;6.20;71.80;;;;;;4855943;28;91362;-72
2021/01/19 12:07:28;;;;;;;21.20;13.13;;;6.20;72.10;;;;;;4868310;28;96325;-73
2021/01/19 12:09:54;;;;;;;26.07;16.83;;;6.20;72.50;;;;;;4867639;28;94597;-73
2021/01/19 12:12:21;;;;;;;15.57;10.97;;;6.10;72.40;;;;;;4900818;28;93342;-72
2021/01/19 12:14:46;;;;;;;22.50;13.27;;;6.10;71.90;;;;;;4862754;28;92207;-72
2021/01/19 12:17:13;;;;;;;16.13;10.93;;;6.00;72.70;;;;;;4867996;28;96791;-72
2021/01/19 12:19:41;;;;;;;18.70;13.17;;;6.10;72.30;;;;;;4872339;28;92181;-73
2021/01/19 12:22:06;;;;;;;21.37;13.40;;;6.10;72.50;;;;;;4881546;28;92072;-73
2021/01/19 12:24:34;;;;;;;19.40;12.40;;;6.10;72.00;;;;;;4882968;28;92142;-76
2021/01/19 12:27:00;;;;;;;18.40;12.63;;;6.00;72.30;;;;;;4883056;28;94629;-76
2021/01/19 12:29:27;;;;;;;22.10;13.20;;;6.10;72.20;;;;;;4883512;28;96570;-76
2021/01/19 12:31:59;;;;;;;21.10;13.73;;;6.10;71.10;;;;;;4899724;28;92057;-79
2021/01/19 12:34:25;;;;;;;18.27;12.10;;;6.00;71.50;;;;;;4867649;28;92078;-77
2021/01/19 12:36:51;;;;;;;29.30;17.57;;;6.10;71.60;;;;;;4882458;28;93368;-76
2021/01/19 12:39:17;;;;;;;31.73;19.57;;;6.10;72.10;;;;;;4899949;28;93796;-80
2021/01/19 12:41:43;;;;;;;23.30;15.10;;;6.20;71.90;;;;;;4866447;28;92115;-81
2021/01/19 12:44:09;;;;;;;24.20;14.37;;;6.20;71.30;;;;;;4884416;28;92077;-76
2021/01/19 12:46:35;;;;;;;19.80;12.60;;;6.10;71.60;;;;;;4883770;28;93318;-76
2021/01/19 12:49:01;;;;;;;18.27;13.27;;;6.00;71.80;;;;;;4867435;28;96696;-76
2021/01/19 12:51:26;;;;;;;15.17;10.50;;;6.00;71.60;;;;;;4867733;28;92539;-76
2021/01/19 12:53:52;;;;;;;20.07;14.03;;;6.00;71.30;;;;;;4883058;28;91835;-77